Time;durP1;ratioP1;P1;durP2;ratioP2;P2;SDS_P1;SDS_P2;PMS_P1;PMS_P2;Temp;Humidity;BMP_temperature;BMP_pressure;BME280_temperature;BME280_humidity;BME280_pressure;Samples;Min_cycle;Max_cycle;Signal;HPM_P1;HPM_P2
2021/08/19 00:01:02;;;;;;;3.65;1.77;;;16.20;99.90;;;;;;2604070;46;20042;31
2021/08/19 00:03:33;;;;;;;4.75;1.60;;;16.00;99.90;;;;;;2604124;46;20948;31
2021/08/19 00:06:04;;;;;;;2.90;1.50;;;16.10;99.90;;;;;;2604219;46;20033;31
2021/08/19 00:08:35;;;;;;;3.03;1.60;;;16.10;99.90;;;;;;2604001;46;20057;31
2021/08/19 00:11:06;;;;;;;3.10;1.55;;;16.10;99.90;;;;;;2604031;46;20036;31
2021/08/19 00:13:37;;;;;;;3.37;1.47;;;16.00;99.90;;;;;;2604015;46;20038;31
2021/08/19 00:16:08;;;;;;;2.83;1.20;;;16.10;99.90;;;;;;2603599;54;20054;31
2021/08/19 00:18:39;;;;;;;2.20;1.83;;;16.10;99.90;;;;;;2603890;46;20876;31
2021/08/19 00:21:10;;;;;;;2.97;1.73;;;16.00;99.90;;;;;;2603937;46;20892;31
2021/08/19 00:23:41;;;;;;;2.95;1.52;;;16.00;99.90;;;;;;2603377;46;20030;31
2021/08/19 00:26:12;;;;;;;2.75;1.33;;;16.00;99.90;;;;;;2603570;54;20033;31
2021/08/19 00:28:43;;;;;;;2.45;1.50;;;16.00;99.90;;;;;;2603415;54;20022;31
2021/08/19 00:31:14;;;;;;;6.47;1.73;;;16.00;99.90;;;;;;2634454;39;20912;31
2021/08/19 00:33:45;;;;;;;4.45;1.88;;;16.00;99.90;;;;;;2603938;46;20027;31
2021/08/19 00:36:16;;;;;;;2.63;1.50;;;16.00;99.90;;;;;;2603387;54;20030;31
2021/08/19 00:38:47;;;;;;;3.55;1.23;;;16.00;99.90;;;;;;2604046;46;20037;31
2021/08/19 00:41:18;;;;;;;4.38;1.40;;;16.00;99.90;;;;;;2603778;46;20830;31
2021/08/19 00:43:49;;;;;;;3.72;1.80;;;16.10;99.90;;;;;;2603866;46;20884;31
2021/08/19 00:46:34;;;;;;;2.30;1.40;;;16.00;99.90;;;;;;2604016;46;20034;31
2021/08/19 00:49:06;;;;;;;2.88;1.20;;;16.10;99.90;;;;;;2603915;46;20050;31
2021/08/19 00:51:47;;;;;;;2.70;1.92;;;16.10;99.90;;;;;;2603844;46;20038;31
2021/08/19 00:54:23;;;;;;;2.58;1.23;;;16.10;99.90;;;;;;2603663;46;19949;31
2021/08/19 00:56:54;;;;;;;;;;;16.20;99.90;;;;;;2603775;54;20085;31
2021/08/19 00:59:29;;;;;;;3.72;1.60;;;16.20;99.90;;;;;;2603788;46;19934;31
2021/08/19 01:02:00;;;;;;;2.53;1.65;;;16.20;99.90;;;;;;2603783;46;20046;31
2021/08/19 01:04:36;;;;;;;2.45;1.60;;;16.20;99.90;;;;;;2603732;46;20048;31
2021/08/19 01:07:08;;;;;;;3.65;1.45;;;16.20;99.90;;;;;;2603677;54;20033;31
2021/08/19 01:09:39;;;;;;;2.70;1.90;;;16.20;99.90;;;;;;2603849;46;20034;31
2021/08/19 01:12:12;;;;;;;3.00;1.30;;;16.30;99.90;;;;;;2603822;46;20090;31
2021/08/19 01:14:43;;;;;;;2.50;1.60;;;16.20;99.90;;;;;;2603645;46;20043;31
2021/08/19 01:17:14;;;;;;;2.90;1.30;;;16.20;99.90;;;;;;2603756;46;25146;31
2021/08/19 01:19:45;;;;;;;1.55;1.08;;;16.20;99.90;;;;;;2603950;46;20029;31
2021/08/19 01:22:16;;;;;;;1.85;1.33;;;16.20;99.90;;;;;;2603688;46;20046;31
2021/08/19 01:24:47;;;;;;;4.40;1.90;;;16.20;99.90;;;;;;2603558;46;20941;31
2021/08/19 01:27:19;;;;;;;1.90;1.25;;;16.20;99.90;;;;;;2603637;46;20864;31
2021/08/19 01:29:50;;;;;;;2.70;1.10;;;16.10;99.90;;;;;;2603438;54;20034;31
2021/08/19 01:32:22;;;;;;;2.88;1.60;;;16.10;99.90;;;;;;2603439;54;20057;31
2021/08/19 01:37:37;;;;;;;2.28;1.58;;;16.10;99.90;;;;;;2646474;53;20502;31
2021/08/19 01:40:09;;;;;;;2.92;1.90;;;16.00;99.90;;;;;;2607286;54;20894;31
2021/08/19 01:42:43;;;;;;;3.60;1.90;;;16.00;99.90;;;;;;2607952;46;20931;31
2021/08/19 01:45:15;;;;;;;4.13;2.28;;;15.90;99.90;;;;;;2706434;38;20920;31
2021/08/19 01:47:46;;;;;;;3.90;1.58;;;15.90;99.90;;;;;;2607765;46;20152;31
2021/08/19 01:50:17;;;;;;;2.75;1.90;;;15.90;99.90;;;;;;2607862;46;20042;31
2021/08/19 01:52:49;;;;;;;4.13;2.50;;;15.90;99.90;;;;;;2607546;54;20053;31
2021/08/19 01:55:20;;;;;;;2.00;1.30;;;15.80;99.90;;;;;;2607900;46;20034;31
2021/08/19 01:57:51;;;;;;;2.33;1.38;;;15.80;99.90;;;;;;2607908;46;20097;31
2021/08/19 02:00:22;;;;;;;2.63;1.65;;;15.80;99.90;;;;;;2607510;54;20041;31
2021/08/19 02:02:53;;;;;;;3.65;1.40;;;15.70;99.90;;;;;;2607317;54;20030;31
2021/08/19 02:05:26;;;;;;;3.65;1.58;;;15.70;99.90;;;;;;2607896;46;20032;31
2021/08/19 02:08:07;;;;;;;2.40;1.55;;;15.60;99.90;;;;;;2607896;46;19934;31
2021/08/19 02:10:38;;;;;;;2.60;1.90;;;15.70;99.90;;;;;;2607361;54;20089;31
2021/08/19 02:13:09;;;;;;;2.75;1.75;;;15.70;99.90;;;;;;2607709;46;20089;31
2021/08/19 02:15:40;;;;;;;3.28;1.60;;;15.70;99.90;;;;;;2607643;46;20053;31
2021/08/19 02:18:11;;;;;;;4.00;1.85;;;15.70;99.90;;;;;;2607896;46;20030;31
2021/08/19 02:20:42;;;;;;;3.55;1.50;;;15.70;99.90;;;;;;2607820;46;20030;31
2021/08/19 02:23:13;;;;;;;3.78;2.22;;;15.70;99.90;;;;;;2606954;46;20858;31
2021/08/19 02:25:44;;;;;;;3.35;1.50;;;15.70;99.90;;;;;;2607879;46;20026;31
2021/08/19 02:28:15;;;;;;;4.70;1.70;;;15.70;99.90;;;;;;2607651;46;20030;31
2021/08/19 02:30:46;;;;;;;2.60;1.70;;;15.70;99.90;;;;;;2607692;46;20879;31
2021/08/19 02:33:17;;;;;;;2.25;1.45;;;15.70;99.90;;;;;;2607246;54;20030;31
2021/08/19 02:35:48;;;;;;;3.95;1.27;;;15.70;99.90;;;;;;2607759;46;20984;31
2021/08/19 02:38:19;;;;;;;3.40;1.50;;;15.70;99.90;;;;;;2607865;46;20032;31
2021/08/19 02:40:50;;;;;;;2.38;1.67;;;15.70;99.90;;;;;;2607666;46;20017;31
2021/08/19 02:43:21;;;;;;;3.10;1.65;;;15.80;99.90;;;;;;2607310;54;20068;31
2021/08/19 02:45:50;;;;;;;2.58;1.52;;;15.80;99.90;;;;;;2706764;38;21086;31
2021/08/19 02:48:21;;;;;;;2.90;1.70;;;15.80;99.90;;;;;;2604947;46;20030;31
2021/08/19 02:50:52;;;;;;;1.85;1.30;;;15.80;99.90;;;;;;2604224;46;20038;31
2021/08/19 02:53:23;;;;;;;3.23;1.67;;;15.90;99.90;;;;;;2604213;46;20076;31
2021/08/19 02:55:54;;;;;;;1.70;1.30;;;15.80;99.90;;;;;;2603760;54;20045;31
2021/08/19 02:58:25;;;;;;;2.40;1.80;;;15.90;99.90;;;;;;2604019;46;20104;31
2021/08/19 03:00:56;;;;;;;2.10;1.33;;;15.90;99.90;;;;;;2604071;46;20822;31
2021/08/19 03:03:27;;;;;;;4.05;1.90;;;15.90;99.90;;;;;;2603852;46;20870;31
2021/08/19 03:05:58;;;;;;;2.25;1.55;;;16.00;99.90;;;;;;2603695;54;20033;31
2021/08/19 03:08:29;;;;;;;2.10;1.40;;;16.00;99.90;;;;;;2603830;46;20318;31
2021/08/19 03:11:00;;;;;;;3.00;1.95;;;16.10;99.90;;;;;;2604066;46;20849;31
2021/08/19 03:13:31;;;;;;;2.05;1.50;;;16.10;99.90;;;;;;2603502;54;20037;31
2021/08/19 03:16:02;;;;;;;2.53;1.77;;;16.10;99.90;;;;;;2603506;54;20934;31
2021/08/19 03:18:34;;;;;;;5.10;1.85;;;16.20;99.90;;;;;;2604133;46;20105;31
2021/08/19 03:21:05;;;;;;;3.50;1.80;;;16.20;99.90;;;;;;2603501;54;25022;31
2021/08/19 03:23:36;;;;;;;3.47;1.80;;;16.20;99.90;;;;;;2604080;46;20585;31
2021/08/19 03:26:08;;;;;;;2.67;1.65;;;16.20;99.90;;;;;;2603614;46;20909;31
2021/08/19 03:28:41;;;;;;;4.00;2.00;;;16.30;99.90;;;;;;2604077;46;20085;31
2021/08/19 03:31:12;;;;;;;4.55;1.80;;;16.20;99.90;;;;;;2603599;54;20086;31
2021/08/19 03:33:43;;;;;;;3.75;1.75;;;16.30;99.90;;;;;;2603952;46;20093;31
2021/08/19 03:36:14;;;;;;;4.45;1.65;;;16.30;99.90;;;;;;2603813;46;20867;31
2021/08/19 03:38:45;;;;;;;3.40;2.10;;;16.30;99.90;;;;;;2603866;46;20038;31
2021/08/19 03:41:16;;;;;;;4.10;1.40;;;16.30;99.90;;;;;;2603874;46;20120;31
2021/08/19 03:43:47;;;;;;;4.30;1.95;;;16.40;99.90;;;;;;2603492;54;20873;31
2021/08/19 03:46:18;;;;;;;3.20;1.80;;;16.30;99.90;;;;;;2603752;46;20090;31
2021/08/19 03:48:50;;;;;;;3.28;1.95;;;16.40;99.90;;;;;;2603545;54;20138;31
2021/08/19 03:51:24;;;;;;;5.03;1.70;;;16.40;99.90;;;;;;2604008;46;21681;31
2021/08/19 03:53:58;;;;;;;5.60;2.20;;;16.40;99.90;;;;;;2603564;54;20086;31
2021/08/19 03:56:30;;;;;;;2.70;1.85;;;16.30;99.90;;;;;;2603929;46;20061;31
2021/08/19 03:59:01;;;;;;;4.15;2.08;;;16.40;99.90;;;;;;2603566;46;20031;31
2021/08/19 04:01:32;;;;;;;3.38;1.80;;;16.40;99.90;;;;;;2603789;46;20086;31
2021/08/19 04:04:03;;;;;;;3.40;1.67;;;16.40;99.90;;;;;;2603510;54;19946;31
2021/08/19 04:06:34;;;;;;;4.20;2.13;;;16.40;99.90;;;;;;2603563;54;20081;31
2021/08/19 04:09:05;;;;;;;2.40;1.70;;;16.50;99.90;;;;;;2603905;46;20105;31
2021/08/19 04:11:36;;;;;;;4.90;2.10;;;16.50;99.90;;;;;;2603506;54;20030;31
2021/08/19 04:14:04;;;;;;;5.90;2.13;;;16.50;99.90;;;;;;2702567;39;21141;31
2021/08/19 04:16:35;;;;;;;4.28;1.98;;;16.50;99.90;;;;;;2603785;46;20907;31
2021/08/19 04:19:06;;;;;;;2.33;1.93;;;16.50;99.90;;;;;;2603752;46;20030;31
2021/08/19 04:21:37;;;;;;;1.90;1.55;;;16.50;99.90;;;;;;2603899;46;20935;31
2021/08/19 04:24:08;;;;;;;3.80;2.00;;;16.60;99.90;;;;;;2603385;54;20026;31
2021/08/19 04:26:39;;;;;;;3.25;2.13;;;16.60;99.90;;;;;;2603403;54;20096;31
2021/08/19 04:29:10;;;;;;;3.60;1.92;;;16.60;99.90;;;;;;2603849;46;20023;31
2021/08/19 04:31:41;;;;;;;3.28;1.92;;;16.60;99.90;;;;;;2603886;46;20105;31
2021/08/19 04:34:12;;;;;;;5.32;2.22;;;16.60;99.90;;;;;;2603368;54;20744;31
2021/08/19 04:36:44;;;;;;;3.45;2.30;;;16.60;99.90;;;;;;2603646;46;20898;31
2021/08/19 04:39:15;;;;;;;3.28;2.30;;;16.70;99.90;;;;;;2702175;39;20362;31
2021/08/19 04:41:46;;;;;;;4.25;1.80;;;16.70;99.90;;;;;;2603842;46;20911;31
2021/08/19 04:44:17;;;;;;;2.40;1.70;;;16.70;99.90;;;;;;2603678;46;20026;31
2021/08/19 04:46:48;;;;;;;5.65;2.42;;;16.70;99.90;;;;;;2603914;46;20858;31
2021/08/19 04:49:19;;;;;;;5.13;2.53;;;16.70;99.90;;;;;;2603618;46;20077;31
2021/08/19 04:51:50;;;;;;;3.15;2.10;;;16.80;99.90;;;;;;2603769;46;20038;31
2021/08/19 04:54:21;;;;;;;2.72;1.92;;;16.80;99.90;;;;;;2603677;46;20046;31
2021/08/19 04:56:52;;;;;;;3.72;2.00;;;16.80;99.90;;;;;;2603597;46;20407;31
2021/08/19 04:59:23;;;;;;;5.20;2.30;;;16.80;99.90;;;;;;2603673;47;20909;31
2021/08/19 05:01:54;;;;;;;2.30;2.00;;;16.80;99.90;;;;;;2603273;54;20046;31
2021/08/19 05:04:26;;;;;;;2.20;1.90;;;16.90;99.90;;;;;;2603330;54;20027;31
2021/08/19 05:06:57;;;;;;;4.35;1.80;;;16.90;99.90;;;;;;2603332;54;19944;31
2021/08/19 05:09:28;;;;;;;3.03;1.95;;;16.90;99.90;;;;;;2603157;54;20062;31
2021/08/19 05:11:57;;;;;;;3.05;1.90;;;17.00;99.90;;;;;;2702176;39;21122;31
2021/08/19 05:14:28;;;;;;;2.43;1.80;;;17.00;99.90;;;;;;2603680;47;20029;31
2021/08/19 05:16:59;;;;;;;3.17;1.90;;;17.10;99.90;;;;;;2603510;46;20081;31
2021/08/19 05:19:30;;;;;;;3.47;2.15;;;17.10;99.90;;;;;;2603540;46;20050;31
2021/08/19 05:22:01;;;;;;;2.35;1.80;;;17.10;99.90;;;;;;2603645;46;20946;31
2021/08/19 05:24:32;;;;;;;3.63;2.17;;;17.10;99.90;;;;;;2603600;46;20030;31
2021/08/19 05:27:03;;;;;;;2.70;1.90;;;17.20;99.90;;;;;;2603483;47;20050;31
2021/08/19 05:29:34;;;;;;;2.83;1.90;;;17.20;99.90;;;;;;2603410;47;20110;31
2021/08/19 05:32:05;;;;;;;3.63;1.65;;;17.30;99.90;;;;;;2603649;47;20030;31
2021/08/19 05:34:36;;;;;;;3.75;1.88;;;17.30;99.90;;;;;;2603386;47;20038;31
2021/08/19 05:37:07;;;;;;;2.55;1.50;;;17.30;99.90;;;;;;2603443;47;20026;31
2021/08/19 05:39:38;;;;;;;4.20;2.00;;;17.40;99.90;;;;;;2603090;54;20074;31
2021/08/19 05:42:09;;;;;;;2.65;1.98;;;17.40;99.90;;;;;;2603092;54;20034;31
2021/08/19 05:44:40;;;;;;;2.60;2.00;;;17.50;99.90;;;;;;2603515;47;20923;31
2021/08/19 05:47:11;;;;;;;3.38;1.75;;;17.50;99.90;;;;;;2602926;54;20936;31
2021/08/19 05:49:44;;;;;;;3.17;2.05;;;17.60;99.90;;;;;;2603457;47;20034;31
2021/08/19 05:52:15;;;;;;;2.40;2.10;;;17.60;99.90;;;;;;2603285;47;19942;31
2021/08/19 05:54:46;;;;;;;3.03;1.90;;;17.60;99.90;;;;;;2603324;47;20046;31
2021/08/19 05:57:17;;;;;;;4.82;2.08;;;17.70;99.90;;;;;;2690691;39;20553;31
2021/08/19 05:59:48;;;;;;;4.10;2.70;;;17.70;99.90;;;;;;2603127;54;20835;31
2021/08/19 06:02:19;;;;;;;3.45;2.15;;;17.70;99.90;;;;;;2603524;47;20859;31
2021/08/19 06:04:50;;;;;;;5.17;2.80;;;17.80;99.90;;;;;;2603115;54;20023;31
2021/08/19 06:07:21;;;;;;;5.05;2.17;;;17.80;99.90;;;;;;2603195;47;20864;31
2021/08/19 06:09:52;;;;;;;2.78;2.00;;;17.90;99.90;;;;;;2603036;47;20026;31
2021/08/19 06:12:23;;;;;;;6.28;2.30;;;17.90;99.90;;;;;;2602993;47;20034;31
2021/08/19 06:14:54;;;;;;;4.45;2.90;;;18.00;99.90;;;;;;2602943;54;20049;31
2021/08/19 06:17:25;;;;;;;5.47;3.10;;;18.00;99.90;;;;;;2602817;54;20835;31
2021/08/19 06:19:56;;;;;;;4.63;2.90;;;18.10;99.90;;;;;;2603001;54;20031;31
2021/08/19 06:22:27;;;;;;;3.55;2.63;;;18.20;99.90;;;;;;2603309;47;20056;31
2021/08/19 06:24:58;;;;;;;3.97;2.22;;;18.20;99.90;;;;;;2604206;46;20090;31
2021/08/19 06:27:29;;;;;;;4.45;2.50;;;18.30;99.90;;;;;;2604172;46;20754;31
2021/08/19 06:30:00;;;;;;;16.88;3.42;;;18.40;99.90;;;;;;2604244;46;20030;31
2021/08/19 06:32:31;;;;;;;6.68;2.50;;;18.40;99.90;;;;;;2624764;39;20050;31
2021/08/19 06:35:02;;;;;;;4.70;2.40;;;18.50;99.90;;;;;;2604046;46;20034;31
2021/08/19 06:37:33;;;;;;;8.10;2.50;;;18.50;99.90;;;;;;2604009;46;20034;31
2021/08/19 06:40:05;;;;;;;4.90;2.10;;;18.60;99.90;;;;;;2603940;46;20046;31
2021/08/19 06:42:36;;;;;;;2.47;2.15;;;18.70;99.90;;;;;;2603747;54;20094;31
2021/08/19 06:45:07;;;;;;;4.07;2.30;;;18.70;99.90;;;;;;2604098;46;20023;31
2021/08/19 06:47:38;;;;;;;4.65;2.50;;;18.80;99.90;;;;;;2603646;54;20073;31
2021/08/19 06:50:16;;;;;;;4.00;2.35;;;18.90;99.90;;;;;;2604119;46;20080;31
2021/08/19 06:52:47;;;;;;;2.85;2.05;;;18.90;99.90;;;;;;2603308;46;20066;31
2021/08/19 06:55:21;;;;;;;2.15;1.95;;;19.10;99.90;;;;;;2603885;46;20878;31
2021/08/19 06:57:54;;;;;;;4.15;2.45;;;19.10;99.90;;;;;;2603438;54;20030;31
2021/08/19 07:00:26;;;;;;;3.08;2.33;;;19.20;99.90;;;;;;2603484;46;20907;31
2021/08/19 07:02:57;;;;;;;2.33;2.13;;;19.30;99.90;;;;;;2603216;46;20050;31
2021/08/19 07:05:32;;;;;;;2.75;2.10;;;19.40;99.90;;;;;;2603487;46;20056;31
2021/08/19 07:08:07;;;;;;;3.50;2.40;;;19.50;99.90;;;;;;2604137;46;20085;31
2021/08/19 07:10:38;;;;;;;3.80;2.35;;;19.60;99.90;;;;;;2603725;54;20026;31
2021/08/19 07:13:10;;;;;;;2.90;2.33;;;19.70;99.90;;;;;;2603842;46;20033;31
2021/08/19 07:15:42;;;;;;;2.83;2.22;;;19.70;99.90;;;;;;2603982;46;20086;31
2021/08/19 07:18:13;;;;;;;3.40;2.35;;;19.80;99.90;;;;;;2603983;46;20073;31
2021/08/19 07:20:44;;;;;;;2.38;2.17;;;20.00;99.90;;;;;;2603680;46;20031;31
2021/08/19 07:23:15;;;;;;;3.00;2.42;;;20.10;99.90;;;;;;2604000;46;20744;31
2021/08/19 07:25:49;;;;;;;3.08;2.70;;;20.20;99.90;;;;;;2702252;39;21163;31
2021/08/19 07:28:21;;;;;;;3.55;2.13;;;20.20;99.90;;;;;;2603442;54;20419;31
2021/08/19 07:30:53;;;;;;;5.67;2.67;;;20.40;99.90;;;;;;2603849;46;20876;31
2021/08/19 07:33:24;;;;;;;4.10;2.50;;;20.50;99.90;;;;;;2603935;46;20050;31
2021/08/19 07:35:55;;;;;;;3.60;2.83;;;20.60;99.90;;;;;;2603921;46;20089;31
2021/08/19 07:38:26;;;;;;;6.60;3.00;;;20.80;99.90;;;;;;2603861;46;20033;31
2021/08/19 07:40:57;;;;;;;5.57;2.67;;;20.80;99.90;;;;;;2603415;47;20030;31
2021/08/19 07:43:28;;;;;;;6.93;2.67;;;21.00;99.90;;;;;;2603643;46;20909;31
2021/08/19 07:45:59;;;;;;;4.78;3.10;;;21.20;99.90;;;;;;2603898;46;20816;31
2021/08/19 07:48:30;;;;;;;7.13;2.85;;;21.30;99.90;;;;;;2603805;46;20330;31
2021/08/19 07:51:01;;;;;;;4.47;2.80;;;21.50;99.90;;;;;;2603712;46;20043;31
2021/08/19 07:53:32;;;;;;;4.78;2.55;;;21.60;99.90;;;;;;2603893;46;20889;31
2021/08/19 07:56:03;;;;;;;3.30;2.95;;;21.90;99.90;;;;;;2603449;54;20090;31
2021/08/19 07:58:34;;;;;;;3.60;3.28;;;22.20;99.90;;;;;;2603689;46;20052;31
2021/08/19 08:01:05;;;;;;;2.78;2.42;;;22.50;99.90;;;;;;2603713;46;20061;31
2021/08/19 08:03:37;;;;;;;3.75;2.60;;;22.80;99.90;;;;;;2603752;46;20026;31
2021/08/19 08:06:10;;;;;;;7.45;2.53;;;23.20;99.90;;;;;;2603011;46;25084;31
2021/08/19 08:08:41;;;;;;;4.47;2.83;;;23.50;99.90;;;;;;2603868;46;20032;31
2021/08/19 08:11:14;;;;;;;3.90;3.10;;;23.80;99.90;;;;;;2603833;46;20022;31
2021/08/19 08:13:45;;;;;;;3.75;3.35;;;24.20;99.90;;;;;;2765101;31;20042;31
2021/08/19 08:16:16;;;;;;;3.43;2.77;;;24.20;99.90;;;;;;2603779;46;20026;31
2021/08/19 08:18:49;;;;;;;4.30;3.20;;;24.10;99.90;;;;;;2603332;54;20034;31
2021/08/19 08:21:21;;;;;;;4.20;3.05;;;23.80;99.90;;;;;;2603780;46;20053;31
2021/08/19 08:23:53;;;;;;;5.75;3.10;;;23.80;99.90;;;;;;2603754;46;20928;31
2021/08/19 08:26:29;;;;;;;4.25;3.05;;;23.70;99.90;;;;;;2603908;46;20022;31
2021/08/19 08:29:00;;;;;;;13.40;3.92;;;23.50;99.90;;;;;;2603197;54;20105;31
2021/08/19 08:31:33;;;;;;;7.05;3.45;;;23.40;99.90;;;;;;2603270;54;20034;31
2021/08/19 08:34:04;;;;;;;3.95;2.80;;;23.10;99.90;;;;;;2603887;46;20094;31
2021/08/19 08:36:36;;;;;;;5.88;3.15;;;23.40;99.90;;;;;;2603290;54;20933;31
2021/08/19 08:39:07;;;;;;;5.53;2.83;;;23.70;99.90;;;;;;2603330;54;20065;31
2021/08/19 08:41:40;;;;;;;4.80;2.85;;;23.90;99.90;;;;;;2603723;46;20030;31
2021/08/19 08:44:11;;;;;;;6.10;2.85;;;23.90;99.90;;;;;;2603377;54;20055;31
2021/08/19 08:46:42;;;;;;;3.90;2.75;;;24.00;99.90;;;;;;2603042;54;25052;31
2021/08/19 08:49:14;;;;;;;4.80;2.75;;;24.30;99.90;;;;;;2603315;54;20091;31
2021/08/19 08:51:52;;;;;;;4.13;2.90;;;24.80;99.90;;;;;;2603744;46;20052;31
2021/08/19 08:54:31;;;;;;;7.25;2.70;;;25.00;99.90;;;;;;2603768;46;19986;31
2021/08/19 08:57:03;;;;;;;4.60;2.40;;;25.00;99.90;;;;;;2603414;54;20135;31
2021/08/19 08:59:35;;;;;;;4.35;2.60;;;24.90;99.90;;;;;;2603405;47;20130;31
2021/08/19 09:02:06;;;;;;;6.43;3.00;;;24.80;99.90;;;;;;2603591;46;20803;31
2021/08/19 09:04:38;;;;;;;5.13;2.53;;;24.50;99.90;;;;;;2603334;54;20897;31
2021/08/19 09:07:10;;;;;;;5.78;3.20;;;24.30;99.90;;;;;;2603455;47;20027;31
2021/08/19 09:09:41;;;;;;;4.40;2.65;;;24.10;99.90;;;;;;2603660;46;20097;31
2021/08/19 09:12:17;;;;;;;3.20;2.50;;;23.90;99.90;;;;;;2602700;46;20036;31
2021/08/19 09:14:53;;;;;;;5.27;2.23;;;23.80;99.90;;;;;;2603200;54;20077;31
2021/08/19 09:17:43;;;;;;;5.75;2.78;;;23.90;99.90;;;;;;2603455;46;20030;31
2021/08/19 09:20:14;;;;;;;4.17;2.60;;;24.10;99.90;;;;;;2603135;54;20109;31
2021/08/19 09:22:55;;;;;;;3.88;2.95;;;24.40;99.90;;;;;;2603342;47;20075;31
2021/08/19 09:25:31;;;;;;;12.38;2.90;;;24.90;99.90;;;;;;2603371;46;20030;31
2021/08/19 09:28:17;;;;;;;5.70;2.15;;;24.80;99.90;;;;;;2603275;54;20065;31
2021/08/19 09:31:05;;;;;;;4.43;3.05;;;24.50;99.90;;;;;;2603231;47;20856;31
2021/08/19 09:33:41;;;;;;;5.90;2.83;;;24.30;99.90;;;;;;2603279;46;20038;31
2021/08/19 09:36:12;;;;;;;3.20;2.40;;;24.10;99.90;;;;;;2603387;47;20867;31
2021/08/19 09:38:44;;;;;;;3.33;2.33;;;23.90;99.90;;;;;;2603472;47;21139;31
2021/08/19 09:41:19;;;;;;;6.00;2.65;;;23.70;99.90;;;;;;2603516;47;20841;31
2021/08/19 09:43:51;;;;;;;6.93;2.85;;;23.40;99.90;;;;;;2603373;47;20109;31
2021/08/19 09:46:31;;;;;;;7.82;2.97;;;23.30;99.90;;;;;;2603104;54;20880;31
2021/08/19 09:49:20;;;;;;;9.95;3.65;;;23.10;99.90;;;;;;2603564;47;20030;31
2021/08/19 09:52:11;;;;;;;7.63;2.80;;;23.00;99.90;;;;;;2603593;47;20065;31
2021/08/19 09:54:43;;;;;;;5.32;3.08;;;22.90;99.90;;;;;;2603150;54;20910;31
2021/08/19 09:57:13;;;;;;;4.25;2.53;;;22.80;99.90;;;;;;2603231;54;20034;31
2021/08/19 09:59:45;;;;;;;5.17;2.90;;;22.70;99.90;;;;;;2702543;39;20327;31
2021/08/19 10:02:16;;;;;;;2.97;2.58;;;22.70;99.90;;;;;;2604235;46;20087;31
2021/08/19 10:04:48;;;;;;;3.85;2.60;;;22.60;99.90;;;;;;2604288;46;20022;31
2021/08/19 10:07:19;;;;;;;3.67;2.92;;;22.70;99.90;;;;;;2604278;46;20082;31
2021/08/19 10:09:50;;;;;;;4.53;2.47;;;22.60;99.90;;;;;;2603846;54;20085;31
2021/08/19 10:12:22;;;;;;;2.90;2.20;;;22.70;99.90;;;;;;2603882;54;20026;31
2021/08/19 10:14:53;;;;;;;6.70;2.67;;;22.80;99.90;;;;;;2604300;46;20074;31
2021/08/19 10:17:24;;;;;;;4.03;2.75;;;22.80;99.90;;;;;;2603873;54;20042;31
2021/08/19 10:19:55;;;;;;;3.25;2.45;;;22.80;99.90;;;;;;2604096;46;20117;31
2021/08/19 10:22:27;;;;;;;3.40;2.55;;;22.90;99.90;;;;;;2604281;46;20073;31
2021/08/19 10:24:59;;;;;;;3.58;2.30;;;22.90;99.90;;;;;;2603989;46;20771;31
2021/08/19 10:27:31;;;;;;;3.25;2.30;;;22.90;99.90;;;;;;2603862;54;20038;31
2021/08/19 10:30:07;;;;;;;4.65;2.45;;;23.00;99.90;;;;;;2603853;54;20026;31
2021/08/19 10:32:59;;;;;;;4.40;2.20;;;23.00;99.90;;;;;;2603750;54;20063;31
2021/08/19 10:35:31;;;;;;;2.85;2.55;;;23.00;99.90;;;;;;2603837;54;20090;31
2021/08/19 10:38:03;;;;;;;2.60;2.35;;;22.90;99.90;;;;;;2603824;54;20027;31
2021/08/19 10:40:54;;;;;;;5.82;2.58;;;23.00;99.90;;;;;;2604127;46;20038;31
2021/08/19 10:43:28;;;;;;;4.03;2.42;;;23.00;99.90;;;;;;2603787;54;20766;31
2021/08/19 10:46:05;;;;;;;2.63;2.42;;;23.00;99.90;;;;;;2603844;54;21170;31
2021/08/19 10:48:48;;;;;;;4.85;2.55;;;22.90;99.90;;;;;;2604207;46;20909;31
2021/08/19 10:51:19;;;;;;;6.03;2.50;;;22.80;99.90;;;;;;2604140;46;20931;31
2021/08/19 10:53:50;;;;;;;4.20;2.67;;;22.80;99.90;;;;;;2604061;46;20031;31
2021/08/19 10:56:49;;;;;;;5.47;2.90;;;22.70;99.90;;;;;;2604191;46;20870;31
2021/08/19 10:59:31;;;;;;;3.42;2.35;;;22.70;99.90;;;;;;2603674;46;20908;31
2021/08/19 11:02:03;;;;;;;5.20;2.30;;;22.60;99.90;;;;;;2603779;54;20033;31
2021/08/19 11:04:46;;;;;;;4.80;2.90;;;22.50;99.90;;;;;;2603699;54;20131;31
2021/08/19 11:07:50;;;;;;;5.13;2.58;;;22.50;99.90;;;;;;2603615;54;20034;31
2021/08/19 11:10:52;;;;;;;4.15;2.20;;;22.50;99.90;;;;;;2603959;47;20907;31
2021/08/19 11:13:23;;;;;;;3.83;2.60;;;22.50;99.90;;;;;;2603963;46;21016;31
2021/08/19 11:15:54;;;;;;;5.50;2.80;;;22.60;99.90;;;;;;2603928;46;20026;31
2021/08/19 11:18:26;;;;;;;4.25;2.60;;;22.60;99.90;;;;;;2603993;46;20881;31
2021/08/19 11:20:58;;;;;;;5.70;2.85;;;22.70;99.90;;;;;;2603393;54;20030;31
2021/08/19 11:23:53;;;;;;;3.17;2.40;;;22.80;99.90;;;;;;2603786;46;20866;31
2021/08/19 11:26:24;;;;;;;2.87;2.00;;;22.90;99.90;;;;;;2604012;46;20033;31
2021/08/19 11:28:55;;;;;;;4.35;2.58;;;23.10;99.90;;;;;;2604077;46;20101;31
2021/08/19 11:31:26;;;;;;;2.72;2.35;;;23.30;99.90;;;;;;2603942;46;19977;31
2021/08/19 11:33:59;;;;;;;5.32;2.60;;;23.50;99.90;;;;;;2603956;46;20034;31
2021/08/19 11:36:31;;;;;;;2.90;2.45;;;23.60;99.90;;;;;;2603579;54;20030;31
2021/08/19 11:39:05;;;;;;;4.53;3.08;;;23.80;99.90;;;;;;2602853;54;20042;31
2021/08/19 11:41:36;;;;;;;2.47;2.28;;;24.00;99.90;;;;;;2603469;54;19957;31
2021/08/19 11:44:08;;;;;;;3.93;2.80;;;24.10;99.90;;;;;;2603690;46;19977;31
2021/08/19 11:46:39;;;;;;;3.20;2.70;;;24.20;99.90;;;;;;2603810;46;20026;31
2021/08/19 11:49:13;;;;;;;2.13;1.92;;;24.30;99.90;;;;;;2603606;46;20030;31
2021/08/19 11:51:44;;;;;;;2.92;1.98;;;24.40;99.90;;;;;;2603873;46;20026;31
2021/08/19 11:54:16;;;;;;;3.77;2.10;;;24.60;99.90;;;;;;2603873;46;20034;31
2021/08/19 11:56:47;;;;;;;6.03;2.07;;;24.70;99.90;;;;;;2603846;46;20030;31
2021/08/19 11:59:18;;;;;;;4.00;1.85;;;24.70;99.90;;;;;;2603206;54;20089;31
2021/08/19 12:01:51;;;;;;;3.30;1.97;;;24.70;99.90;;;;;;2603385;54;24072;31
2021/08/19 12:04:28;;;;;;;2.23;1.80;;;24.70;99.90;;;;;;2603936;46;20033;31
2021/08/19 12:07:00;;;;;;;4.30;2.30;;;24.80;99.90;;;;;;2603674;46;20038;31
2021/08/19 12:09:35;;;;;;;3.60;1.95;;;24.80;99.90;;;;;;2603643;46;20084;31
2021/08/19 12:12:09;;;;;;;6.43;1.85;;;24.80;99.90;;;;;;2603722;46;20038;31
2021/08/19 12:14:40;;;;;;;6.43;2.17;;;24.70;99.90;;;;;;2603988;46;20038;31
2021/08/19 12:17:12;;;;;;;4.10;2.22;;;24.70;99.90;;;;;;2603843;46;20844;31
2021/08/19 12:19:43;;;;;;;8.23;2.42;;;24.80;99.90;;;;;;2603159;54;20023;31
2021/08/19 12:22:14;;;;;;;3.22;2.70;;;24.80;99.90;;;;;;2603414;54;20030;31
2021/08/19 12:24:45;;;;;;;3.70;2.07;;;24.90;99.90;;;;;;2603927;46;20026;31
2021/08/19 12:30:05;;;;;;;3.20;2.00;;;24.90;99.90;;;;;;2646221;53;20479;31
2021/08/19 12:32:36;;;;;;;4.57;3.00;;;24.70;99.90;;;;;;2607315;54;20032;31
2021/08/19 12:35:11;;;;;;;3.28;2.15;;;24.60;99.90;;;;;;2607935;46;20112;31
2021/08/19 12:37:55;;;;;;;3.92;2.25;;;24.50;99.90;;;;;;2607907;46;20889;31
2021/08/19 12:40:27;;;;;;;4.90;1.98;;;24.40;99.90;;;;;;2607440;54;20026;31
2021/08/19 12:43:06;;;;;;;7.97;2.17;;;24.10;99.90;;;;;;2607791;46;20036;31
2021/08/19 12:45:37;;;;;;;3.28;1.83;;;24.00;99.90;;;;;;2607498;54;21082;31
2021/08/19 12:48:09;;;;;;;4.18;2.42;;;24.00;99.90;;;;;;2607464;54;20917;31
2021/08/19 12:50:41;;;;;;;3.92;2.00;;;23.90;99.90;;;;;;2607420;54;20098;31
2021/08/19 12:53:14;;;;;;;6.15;2.40;;;23.90;99.90;;;;;;2607842;46;20029;31
2021/08/19 12:55:54;;;;;;;3.75;2.10;;;23.80;99.90;;;;;;2607475;54;20030;31
2021/08/19 12:58:31;;;;;;;4.63;2.60;;;23.70;99.90;;;;;;2607958;46;20033;31
2021/08/19 13:01:02;;;;;;;3.65;1.88;;;23.60;99.90;;;;;;2607878;46;20030;31
2021/08/19 13:03:34;;;;;;;3.65;2.33;;;23.60;99.90;;;;;;2607747;46;20870;31
2021/08/19 13:06:04;;;;;;;4.13;2.38;;;23.60;99.90;;;;;;2674768;38;20345;31
2021/08/19 13:08:35;;;;;;;3.70;2.75;;;23.60;99.90;;;;;;2607720;46;19954;31
2021/08/19 13:11:06;;;;;;;3.88;2.17;;;23.60;99.90;;;;;;2607369;54;20030;31
2021/08/19 13:13:37;;;;;;;4.03;2.50;;;23.50;99.90;;;;;;2607782;46;20023;31
2021/08/19 13:16:08;;;;;;;5.85;2.65;;;23.50;99.90;;;;;;2607868;46;20917;31
2021/08/19 13:18:39;;;;;;;4.40;3.03;;;23.50;99.90;;;;;;2607753;46;20023;31
2021/08/19 13:21:10;;;;;;;12.25;2.90;;;23.40;99.90;;;;;;2607841;46;20030;31
2021/08/19 13:23:41;;;;;;;5.40;2.35;;;23.30;99.90;;;;;;2607290;54;20909;31
2021/08/19 13:26:12;;;;;;;4.85;2.75;;;23.30;99.90;;;;;;2607748;46;20038;31
2021/08/19 13:28:43;;;;;;;7.20;2.45;;;23.30;99.90;;;;;;2607707;46;20911;31
2021/08/19 13:31:14;;;;;;;5.23;3.03;;;23.20;99.90;;;;;;2607832;46;20052;31